AUA383Y LOWW-LFML
Flight info
| Callsign | AUA383Y |
|---|---|
| Flight time | N/A |
| Altitude | 34000 |
| Route | OSPEN DCT ABRUK DCT SETAL DCT DETSA/N0453F350 DCT LAGEN/N0416F230 DCT ENOBA DCT ASBOP DCT BORDI DCT PIGOS DCT STP/N0386F180 A3 RUBIT G7 LANKO |
| Aircraft | A320/M-SDE3FGHIRWY/LB1 |
Departure
| Time | 2026-05-08 07:01 |
|---|---|
| Airport | Vienna International Airport (LOWW) |
Arrival
| Time | N/A |
|---|---|
| Airport | Marseille Provence Airport (LFML) |
| Time | Latitude | Longitude | Altitude | Speed | Heading |
|---|---|---|---|---|---|
| 2026-05-08 06:55 | 48.11417 | 16.56999 | 606 ft | 0 kts | 178° |
| 2026-05-08 06:56 | 48.11386 | 16.57002 | 606 ft | 12 kts | 178° |
| 2026-05-08 06:57 | 48.11354 | 16.57032 | 606 ft | 8 kts | 136° |
| 2026-05-08 06:57 | 48.11283 | 16.57081 | 605 ft | 12 kts | 138° |
| 2026-05-08 06:57 | 48.11239 | 16.57197 | 604 ft | 13 kts | 112° |
| 2026-05-08 06:57 | 48.11195 | 16.57329 | 602 ft | 15 kts | 121° |
| 2026-05-08 06:58 | 48.11147 | 16.57455 | 600 ft | 13 kts | 116° |
| 2026-05-08 06:58 | 48.11073 | 16.57518 | 599 ft | 13 kts | 193° |
| 2026-05-08 06:58 | 48.11062 | 16.57513 | 599 ft | 0 kts | 200° |
| 2026-05-08 06:58 | 48.11056 | 16.57510 | 599 ft | 8 kts | 200° |
| 2026-05-08 06:59 | 48.10979 | 16.57462 | 600 ft | 11 kts | 207° |
| 2026-05-08 06:59 | 48.10961 | 16.57402 | 602 ft | 0 kts | 287° |
| 2026-05-08 06:59 | 48.10963 | 16.57393 | 602 ft | 9 kts | 287° |
| 2026-05-08 07:00 | 48.11116 | 16.56924 | 604 ft | 87 kts | 297° |
| 2026-05-08 07:00 | 48.11489 | 16.55785 | 586 ft | 153 kts | 296° |
| 2026-05-08 07:00 | 48.11986 | 16.54197 | 794 ft | 184 kts | 295° |
| 2026-05-08 07:00 | 48.12553 | 16.52321 | 1104 ft | 215 kts | 295° |
| 2026-05-08 07:01 | 48.12934 | 16.50045 | 1453 ft | 238 kts | 270° |
| 2026-05-08 07:01 | 48.12521 | 16.47599 | 1842 ft | 251 kts | 246° |
| 2026-05-08 07:01 | 48.11417 | 16.45560 | 2207 ft | 258 kts | 217° |
| 2026-05-08 07:01 | 48.09737 | 16.44549 | 2582 ft | 265 kts | 188° |
| 2026-05-08 07:02 | 48.07908 | 16.44609 | 3054 ft | 269 kts | 175° |
| 2026-05-08 07:02 | 48.06018 | 16.44743 | 3547 ft | 272 kts | 191° |
| 2026-05-08 07:02 | 48.04347 | 16.43630 | 4046 ft | 266 kts | 223° |
| 2026-05-08 07:02 | 48.03017 | 16.41701 | 4554 ft | 267 kts | 229° |
| 2026-05-08 07:03 | 48.01736 | 16.39744 | 5048 ft | 268 kts | 227° |
| 2026-05-08 07:03 | 48.00380 | 16.37794 | 5555 ft | 269 kts | 225° |
| 2026-05-08 07:03 | 47.99003 | 16.35920 | 6050 ft | 270 kts | 224° |
| 2026-05-08 07:03 | 47.97597 | 16.34053 | 6553 ft | 272 kts | 223° |
| 2026-05-08 07:04 | 47.96304 | 16.32022 | 7041 ft | 271 kts | 237° |
| 2026-05-08 07:04 | 47.95408 | 16.29578 | 7543 ft | 269 kts | 250° |
| 2026-05-08 07:04 | 47.94764 | 16.26997 | 8039 ft | 270 kts | 252° |
| 2026-05-08 07:04 | 47.94136 | 16.24337 | 8545 ft | 272 kts | 252° |
| 2026-05-08 07:05 | 47.93502 | 16.21673 | 9048 ft | 273 kts | 252° |
| 2026-05-08 07:05 | 47.92868 | 16.19047 | 9546 ft | 275 kts | 252° |
| 2026-05-08 07:05 | 47.92212 | 16.16362 | 10057 ft | 276 kts | 251° |
| 2026-05-08 07:05 | 47.91547 | 16.13649 | 10565 ft | 288 kts | 251° |
| 2026-05-08 07:06 | 47.90836 | 16.10753 | 11084 ft | 302 kts | 251° |
| 2026-05-08 07:06 | 47.90108 | 16.07801 | 11586 ft | 316 kts | 251° |
| 2026-05-08 07:06 | 47.89321 | 16.04648 | 12093 ft | 328 kts | 251° |
| 2026-05-08 07:06 | 47.88515 | 16.01440 | 12590 ft | 340 kts | 251° |
| 2026-05-08 07:07 | 47.87560 | 15.98191 | 13079 ft | 350 kts | 242° |
| 2026-05-08 07:07 | 47.86112 | 15.95252 | 13575 ft | 356 kts | 229° |
| 2026-05-08 07:07 | 47.84257 | 15.92814 | 14076 ft | 361 kts | 220° |
| 2026-05-08 07:07 | 47.82243 | 15.90529 | 14580 ft | 364 kts | 219° |
| 2026-05-08 07:08 | 47.80233 | 15.88285 | 15078 ft | 366 kts | 219° |
| 2026-05-08 07:08 | 47.78195 | 15.86008 | 15583 ft | 369 kts | 219° |
| 2026-05-08 07:08 | 47.76153 | 15.83719 | 16086 ft | 371 kts | 219° |
| 2026-05-08 07:08 | 47.74078 | 15.81390 | 16591 ft | 373 kts | 219° |
| 2026-05-08 07:09 | 47.72023 | 15.79078 | 17093 ft | 375 kts | 219° |
| 2026-05-08 07:09 | 47.69953 | 15.76750 | 17594 ft | 377 kts | 219° |
| 2026-05-08 07:09 | 47.67851 | 15.74387 | 18096 ft | 380 kts | 219° |
| 2026-05-08 07:09 | 47.65742 | 15.72018 | 18605 ft | 382 kts | 219° |
| 2026-05-08 07:10 | 47.63623 | 15.69642 | 19121 ft | 385 kts | 219° |
| 2026-05-08 07:10 | 47.61504 | 15.67267 | 19587 ft | 387 kts | 219° |
| 2026-05-08 07:10 | 47.59338 | 15.64841 | 20054 ft | 390 kts | 219° |
| 2026-05-08 07:10 | 47.57178 | 15.62426 | 20514 ft | 393 kts | 219° |
| 2026-05-08 07:11 | 47.55006 | 15.59999 | 20981 ft | 395 kts | 220° |
| 2026-05-08 07:11 | 47.52803 | 15.57540 | 21450 ft | 398 kts | 220° |
| 2026-05-08 07:11 | 47.50666 | 15.54985 | 21911 ft | 398 kts | 227° |
| 2026-05-08 07:11 | 47.48915 | 15.51831 | 22382 ft | 397 kts | 239° |
| 2026-05-08 07:12 | 47.47680 | 15.48211 | 22852 ft | 396 kts | 251° |
| 2026-05-08 07:12 | 47.46862 | 15.44315 | 23334 ft | 399 kts | 255° |
| 2026-05-08 07:12 | 47.46108 | 15.40398 | 23809 ft | 401 kts | 256° |
| 2026-05-08 07:12 | 47.45355 | 15.36470 | 24260 ft | 403 kts | 256° |
| 2026-05-08 07:13 | 47.44587 | 15.32482 | 24733 ft | 404 kts | 255° |
| 2026-05-08 07:13 | 47.43813 | 15.28480 | 25197 ft | 406 kts | 255° |
| 2026-05-08 07:13 | 47.43039 | 15.24510 | 25647 ft | 408 kts | 255° |
| 2026-05-08 07:13 | 47.42252 | 15.20502 | 26024 ft | 409 kts | 255° |
| 2026-05-08 07:14 | 47.41463 | 15.16493 | 26406 ft | 410 kts | 255° |
| 2026-05-08 07:14 | 47.40665 | 15.12456 | 26789 ft | 412 kts | 254° |
| 2026-05-08 07:14 | 47.39862 | 15.08407 | 27175 ft | 413 kts | 254° |
| 2026-05-08 07:14 | 47.39056 | 15.04347 | 27560 ft | 414 kts | 254° |
| 2026-05-08 07:15 | 47.38248 | 15.00280 | 27951 ft | 416 kts | 255° |
| 2026-05-08 07:15 | 47.37433 | 14.96163 | 28346 ft | 416 kts | 254° |
| 2026-05-08 07:15 | 47.36623 | 14.92082 | 28737 ft | 416 kts | 255° |
| 2026-05-08 07:15 | 47.35820 | 14.88042 | 29121 ft | 416 kts | 255° |
| 2026-05-08 07:16 | 47.35004 | 14.83966 | 29515 ft | 415 kts | 255° |
| 2026-05-08 07:16 | 47.34189 | 14.79902 | 29905 ft | 413 kts | 255° |
| 2026-05-08 07:16 | 47.33380 | 14.75872 | 30290 ft | 412 kts | 255° |
| 2026-05-08 07:16 | 47.32567 | 14.71839 | 30688 ft | 410 kts | 255° |
| 2026-05-08 07:17 | 47.31760 | 14.67837 | 31088 ft | 407 kts | 255° |
| 2026-05-08 07:17 | 47.30962 | 14.63894 | 31481 ft | 405 kts | 254° |
| 2026-05-08 07:17 | 47.30165 | 14.59959 | 31878 ft | 402 kts | 254° |
| 2026-05-08 07:17 | 47.29369 | 14.56045 | 32279 ft | 399 kts | 254° |
| 2026-05-08 07:18 | 47.28576 | 14.52157 | 32678 ft | 396 kts | 254° |
| 2026-05-08 07:18 | 47.27787 | 14.48301 | 33081 ft | 393 kts | 254° |
| 2026-05-08 07:18 | 47.27000 | 14.44451 | 33487 ft | 390 kts | 254° |
| 2026-05-08 07:18 | 47.26231 | 14.40705 | 33886 ft | 386 kts | 254° |
| 2026-05-08 07:19 | 47.25457 | 14.36947 | 34288 ft | 383 kts | 254° |
| 2026-05-08 07:19 | 47.24686 | 14.33204 | 34691 ft | 379 kts | 253° |
| 2026-05-08 07:19 | 47.23930 | 14.29525 | 34976 ft | 377 kts | 253° |
| 2026-05-08 07:19 | 47.23169 | 14.25829 | 35070 ft | 381 kts | 253° |
| 2026-05-08 07:20 | 47.21618 | 14.18278 | 35074 ft | 393 kts | 253° |
| 2026-05-08 07:20 | 47.20022 | 14.10556 | 35063 ft | 402 kts | 253° |
| 2026-05-08 07:21 | 47.18377 | 14.02652 | 35064 ft | 404 kts | 253° |
| 2026-05-08 07:21 | 47.16734 | 13.94801 | 35064 ft | 404 kts | 253° |
| 2026-05-08 07:22 | 47.15087 | 13.86973 | 35062 ft | 404 kts | 253° |
| 2026-05-08 07:22 | 47.13427 | 13.79103 | 35064 ft | 403 kts | 252° |
| 2026-05-08 07:23 | 47.11770 | 13.71294 | 35061 ft | 403 kts | 253° |
| 2026-05-08 07:23 | 47.10107 | 13.63468 | 35060 ft | 403 kts | 252° |
| 2026-05-08 07:24 | 47.08440 | 13.55670 | 35057 ft | 402 kts | 252° |
| 2026-05-08 07:24 | 47.06765 | 13.47857 | 35059 ft | 402 kts | 252° |
| 2026-05-08 07:25 | 47.05085 | 13.40055 | 35056 ft | 403 kts | 252° |
| 2026-05-08 07:26 | 47.02572 | 13.28416 | 35060 ft | 403 kts | 251° |
| 2026-05-08 07:26 | 47.00878 | 13.20606 | 35061 ft | 402 kts | 251° |
| 2026-05-08 07:27 | 46.99192 | 13.12865 | 35065 ft | 402 kts | 251° |
| 2026-05-08 07:27 | 46.97492 | 13.05092 | 35062 ft | 402 kts | 251° |
| 2026-05-08 07:28 | 46.95787 | 12.97339 | 35056 ft | 401 kts | 251° |
| 2026-05-08 07:28 | 46.94074 | 12.89576 | 35054 ft | 401 kts | 251° |
| 2026-05-08 07:29 | 46.92371 | 12.81887 | 35053 ft | 401 kts | 251° |
| 2026-05-08 07:29 | 46.90648 | 12.74145 | 35056 ft | 401 kts | 251° |
| 2026-05-08 07:30 | 46.88904 | 12.66395 | 35053 ft | 402 kts | 251° |
| 2026-05-08 07:30 | 46.87156 | 12.58694 | 35070 ft | 401 kts | 251° |
| 2026-05-08 07:31 | 46.85409 | 12.50953 | 35092 ft | 403 kts | 251° |
| 2026-05-08 07:31 | 46.83667 | 12.43240 | 35103 ft | 403 kts | 251° |
| 2026-05-08 07:32 | 46.81678 | 12.35595 | 35108 ft | 403 kts | 246° |
| 2026-05-08 07:32 | 46.79134 | 12.28331 | 35101 ft | 403 kts | 239° |
| 2026-05-08 07:33 | 46.76071 | 12.21548 | 35095 ft | 404 kts | 234° |
| 2026-05-08 07:33 | 46.72504 | 12.15220 | 35091 ft | 406 kts | 230° |
| 2026-05-08 07:34 | 46.68815 | 12.09013 | 35095 ft | 405 kts | 230° |
| 2026-05-08 07:34 | 46.65123 | 12.02829 | 35101 ft | 406 kts | 230° |
| 2026-05-08 07:35 | 46.61431 | 11.96665 | 35102 ft | 406 kts | 230° |
| 2026-05-08 07:35 | 46.57717 | 11.90484 | 35092 ft | 406 kts | 230° |
| 2026-05-08 07:36 | 46.54022 | 11.84350 | 35075 ft | 405 kts | 230° |
| 2026-05-08 07:36 | 46.50326 | 11.78229 | 35066 ft | 405 kts | 229° |
| 2026-05-08 07:37 | 46.46617 | 11.72097 | 35068 ft | 405 kts | 229° |
| 2026-05-08 07:37 | 46.42895 | 11.65963 | 35068 ft | 406 kts | 229° |
| 2026-05-08 07:38 | 46.39198 | 11.59878 | 35069 ft | 406 kts | 229° |
| 2026-05-08 07:38 | 46.35458 | 11.53742 | 35074 ft | 406 kts | 229° |
| 2026-05-08 07:39 | 46.31727 | 11.47633 | 35073 ft | 406 kts | 229° |
| 2026-05-08 07:39 | 46.27994 | 11.41533 | 35074 ft | 406 kts | 229° |
| 2026-05-08 07:40 | 46.24261 | 11.35444 | 35070 ft | 406 kts | 229° |
| 2026-05-08 07:40 | 46.20549 | 11.29384 | 35068 ft | 405 kts | 228° |
| 2026-05-08 07:41 | 46.16807 | 11.23293 | 35068 ft | 406 kts | 228° |
| 2026-05-08 07:41 | 46.13056 | 11.17208 | 35063 ft | 405 kts | 228° |
| 2026-05-08 07:42 | 46.09336 | 11.11191 | 35058 ft | 405 kts | 228° |
| 2026-05-08 07:42 | 46.05594 | 11.05157 | 35051 ft | 405 kts | 228° |
| 2026-05-08 07:43 | 46.01848 | 10.99132 | 35053 ft | 405 kts | 228° |
| 2026-05-08 07:43 | 45.98090 | 10.93098 | 35051 ft | 405 kts | 228° |
| 2026-05-08 07:44 | 45.94337 | 10.87087 | 35043 ft | 405 kts | 227° |
| 2026-05-08 07:44 | 45.90586 | 10.81092 | 35048 ft | 406 kts | 227° |
| 2026-05-08 07:45 | 45.86816 | 10.75111 | 35052 ft | 406 kts | 227° |
| 2026-05-08 07:45 | 45.83040 | 10.69140 | 35057 ft | 406 kts | 227° |
| 2026-05-08 07:46 | 45.79248 | 10.63135 | 35056 ft | 407 kts | 228° |
| 2026-05-08 07:46 | 45.75472 | 10.57158 | 35049 ft | 408 kts | 227° |
| 2026-05-08 07:47 | 45.71679 | 10.51167 | 35055 ft | 407 kts | 228° |
| 2026-05-08 07:47 | 45.67872 | 10.45163 | 35051 ft | 407 kts | 228° |
| 2026-05-08 07:48 | 45.64074 | 10.39185 | 35047 ft | 408 kts | 227° |
| 2026-05-08 07:48 | 45.60280 | 10.33224 | 35036 ft | 408 kts | 227° |
| 2026-05-08 07:49 | 45.56455 | 10.27201 | 35026 ft | 409 kts | 227° |
| 2026-05-08 07:49 | 45.52644 | 10.21222 | 35031 ft | 410 kts | 227° |
| 2026-05-08 07:50 | 45.48813 | 10.15237 | 35031 ft | 410 kts | 227° |
| 2026-05-08 07:50 | 45.44980 | 10.09268 | 35029 ft | 410 kts | 227° |
| 2026-05-08 07:51 | 45.41145 | 10.03309 | 35029 ft | 409 kts | 226° |
| 2026-05-08 07:51 | 45.37312 | 9.97367 | 35021 ft | 409 kts | 227° |
| 2026-05-08 07:52 | 45.33466 | 9.91423 | 35023 ft | 409 kts | 227° |
| 2026-05-08 07:52 | 45.29610 | 9.85468 | 35024 ft | 410 kts | 227° |
| 2026-05-08 07:53 | 45.25767 | 9.79546 | 35026 ft | 410 kts | 226° |
| 2026-05-08 07:53 | 45.21910 | 9.73621 | 35023 ft | 411 kts | 226° |
| 2026-05-08 07:54 | 45.18025 | 9.67662 | 35028 ft | 412 kts | 227° |
| 2026-05-08 07:54 | 45.14159 | 9.61747 | 35026 ft | 413 kts | 226° |
| 2026-05-08 07:55 | 45.10244 | 9.55769 | 35019 ft | 413 kts | 226° |
| 2026-05-08 07:55 | 45.06335 | 9.49814 | 35020 ft | 414 kts | 226° |
| 2026-05-08 07:56 | 45.02430 | 9.43877 | 35018 ft | 414 kts | 226° |
| 2026-05-08 07:56 | 44.98518 | 9.37941 | 35011 ft | 414 kts | 226° |
| 2026-05-08 07:57 | 44.94590 | 9.31986 | 35012 ft | 415 kts | 225° |
| 2026-05-08 07:57 | 44.90681 | 9.26054 | 35006 ft | 415 kts | 225° |
| 2026-05-08 07:58 | 44.86742 | 9.20134 | 35003 ft | 416 kts | 225° |
| 2026-05-08 07:58 | 44.82794 | 9.14223 | 35002 ft | 417 kts | 225° |
| 2026-05-08 07:59 | 44.78808 | 9.08258 | 34994 ft | 417 kts | 226° |
| 2026-05-08 07:59 | 44.74870 | 9.02365 | 34989 ft | 418 kts | 225° |
| 2026-05-08 08:00 | 44.70867 | 8.96383 | 34988 ft | 418 kts | 226° |
| 2026-05-08 08:00 | 44.66905 | 8.90478 | 34993 ft | 418 kts | 225° |
| 2026-05-08 08:01 | 44.62915 | 8.84539 | 35001 ft | 418 kts | 226° |
| 2026-05-08 08:01 | 44.58920 | 8.78612 | 34990 ft | 419 kts | 226° |
| 2026-05-08 08:02 | 44.54936 | 8.72708 | 34991 ft | 418 kts | 226° |
| 2026-05-08 08:02 | 44.50954 | 8.66824 | 34998 ft | 418 kts | 226° |
| 2026-05-08 08:03 | 44.46957 | 8.60928 | 34992 ft | 418 kts | 226° |
| 2026-05-08 08:03 | 44.42970 | 8.55062 | 34990 ft | 419 kts | 226° |
| 2026-05-08 08:04 | 44.39141 | 8.48930 | 34990 ft | 419 kts | 231° |
| 2026-05-08 08:04 | 44.35755 | 8.42359 | 34993 ft | 419 kts | 235° |
| 2026-05-08 08:05 | 44.32444 | 8.35667 | 35012 ft | 418 kts | 235° |
| 2026-05-08 08:05 | 44.29152 | 8.28987 | 34988 ft | 418 kts | 235° |
| 2026-05-08 08:06 | 44.25870 | 8.22332 | 34989 ft | 419 kts | 235° |
| 2026-05-08 08:06 | 44.22573 | 8.15678 | 35003 ft | 419 kts | 235° |
| 2026-05-08 08:07 | 44.19246 | 8.08998 | 34978 ft | 420 kts | 235° |
| 2026-05-08 08:07 | 44.15942 | 8.02380 | 34988 ft | 420 kts | 235° |
| 2026-05-08 08:08 | 44.12593 | 7.95682 | 34970 ft | 422 kts | 236° |
| 2026-05-08 08:08 | 44.09237 | 7.88979 | 34692 ft | 424 kts | 236° |
| 2026-05-08 08:08 | 44.07579 | 7.85672 | 34296 ft | 419 kts | 235° |
| 2026-05-08 08:09 | 44.05900 | 7.82400 | 33858 ft | 413 kts | 233° |
| 2026-05-08 08:09 | 44.04108 | 7.79317 | 33391 ft | 407 kts | 230° |
| 2026-05-08 08:09 | 44.02217 | 7.76463 | 32931 ft | 402 kts | 226° |
| 2026-05-08 08:09 | 44.00212 | 7.73802 | 32464 ft | 402 kts | 222° |
| 2026-05-08 08:10 | 43.98052 | 7.71286 | 31992 ft | 405 kts | 219° |
| 2026-05-08 08:10 | 43.95792 | 7.68980 | 31530 ft | 406 kts | 216° |
| 2026-05-08 08:10 | 43.93465 | 7.66753 | 31073 ft | 408 kts | 215° |
| 2026-05-08 08:10 | 43.91145 | 7.64539 | 30620 ft | 409 kts | 215° |
| 2026-05-08 08:11 | 43.88800 | 7.62308 | 30124 ft | 411 kts | 214° |
| 2026-05-08 08:11 | 43.86423 | 7.60063 | 29619 ft | 412 kts | 214° |
| 2026-05-08 08:11 | 43.84076 | 7.57846 | 29132 ft | 415 kts | 215° |
| 2026-05-08 08:11 | 43.81690 | 7.55588 | 28636 ft | 417 kts | 215° |
| 2026-05-08 08:12 | 43.79306 | 7.53327 | 28142 ft | 419 kts | 215° |
| 2026-05-08 08:12 | 43.76891 | 7.51035 | 27649 ft | 421 kts | 215° |
| 2026-05-08 08:12 | 43.74474 | 7.48743 | 27156 ft | 424 kts | 215° |
| 2026-05-08 08:12 | 43.72035 | 7.46435 | 26660 ft | 426 kts | 215° |
| 2026-05-08 08:13 | 43.69604 | 7.44117 | 26177 ft | 428 kts | 217° |
| 2026-05-08 08:13 | 43.67210 | 7.41639 | 25692 ft | 431 kts | 219° |
| 2026-05-08 08:13 | 43.64916 | 7.38993 | 25209 ft | 432 kts | 222° |
| 2026-05-08 08:13 | 43.62720 | 7.36172 | 24720 ft | 434 kts | 225° |
| 2026-05-08 08:14 | 43.60633 | 7.33183 | 24238 ft | 436 kts | 227° |
| 2026-05-08 08:14 | 43.58644 | 7.29993 | 23751 ft | 438 kts | 231° |
| 2026-05-08 08:14 | 43.56784 | 7.26657 | 23279 ft | 440 kts | 234° |
| 2026-05-08 08:14 | 43.55015 | 7.23245 | 22822 ft | 442 kts | 234° |
| 2026-05-08 08:15 | 43.53242 | 7.19818 | 22354 ft | 443 kts | 234° |
| 2026-05-08 08:15 | 43.51435 | 7.16335 | 21905 ft | 445 kts | 234° |
| 2026-05-08 08:15 | 43.49652 | 7.12905 | 21449 ft | 446 kts | 234° |
| 2026-05-08 08:15 | 43.47848 | 7.09440 | 20988 ft | 447 kts | 234° |
| 2026-05-08 08:16 | 43.46038 | 7.05971 | 20536 ft | 448 kts | 234° |
| 2026-05-08 08:16 | 43.44212 | 7.02475 | 20077 ft | 450 kts | 234° |
| 2026-05-08 08:16 | 43.42390 | 6.98991 | 19607 ft | 448 kts | 234° |
| 2026-05-08 08:16 | 43.40583 | 6.95540 | 19157 ft | 446 kts | 234° |
| 2026-05-08 08:17 | 43.38791 | 6.92121 | 18814 ft | 443 kts | 234° |
| 2026-05-08 08:17 | 43.36976 | 6.88664 | 18432 ft | 442 kts | 234° |
| 2026-05-08 08:17 | 43.35191 | 6.85268 | 18103 ft | 440 kts | 234° |
| 2026-05-08 08:17 | 43.33408 | 6.81880 | 17835 ft | 439 kts | 234° |
| 2026-05-08 08:18 | 43.31631 | 6.78508 | 17577 ft | 438 kts | 234° |
| 2026-05-08 08:18 | 43.29829 | 6.75093 | 17362 ft | 437 kts | 234° |
| 2026-05-08 08:18 | 43.28056 | 6.71737 | 17149 ft | 436 kts | 234° |
| 2026-05-08 08:18 | 43.26282 | 6.68383 | 16948 ft | 435 kts | 234° |
| 2026-05-08 08:19 | 43.24507 | 6.65031 | 16800 ft | 434 kts | 234° |
| 2026-05-08 08:19 | 43.22930 | 6.61520 | 16609 ft | 434 kts | 246° |
| 2026-05-08 08:19 | 43.22096 | 6.57594 | 16377 ft | 434 kts | 261° |
| 2026-05-08 08:19 | 43.21988 | 6.53483 | 16132 ft | 431 kts | 271° |
| 2026-05-08 08:20 | 43.22073 | 6.49427 | 15687 ft | 420 kts | 271° |
| 2026-05-08 08:20 | 43.22161 | 6.45531 | 15226 ft | 409 kts | 271° |
| 2026-05-08 08:20 | 43.22233 | 6.41691 | 14811 ft | 400 kts | 271° |
| 2026-05-08 08:20 | 43.22294 | 6.37930 | 14355 ft | 391 kts | 272° |
| 2026-05-08 08:21 | 43.22351 | 6.34229 | 13923 ft | 384 kts | 271° |
| 2026-05-08 08:21 | 43.22406 | 6.30649 | 13458 ft | 377 kts | 271° |
| 2026-05-08 08:21 | 43.22458 | 6.27100 | 13140 ft | 367 kts | 271° |
| 2026-05-08 08:21 | 43.22504 | 6.23673 | 12832 ft | 357 kts | 271° |
| 2026-05-08 08:22 | 43.22549 | 6.20306 | 12608 ft | 346 kts | 271° |
| 2026-05-08 08:22 | 43.22591 | 6.17077 | 12379 ft | 336 kts | 271° |
| 2026-05-08 08:22 | 43.22630 | 6.13922 | 12155 ft | 326 kts | 271° |
| 2026-05-08 08:22 | 43.22664 | 6.10853 | 12005 ft | 315 kts | 270° |
| 2026-05-08 08:23 | 43.22690 | 6.07961 | 11984 ft | 299 kts | 270° |
| 2026-05-08 08:23 | 43.22714 | 6.05211 | 11992 ft | 283 kts | 270° |
| 2026-05-08 08:23 | 43.22757 | 6.02582 | 11992 ft | 267 kts | 273° |
| 2026-05-08 08:23 | 43.22895 | 6.00110 | 11988 ft | 252 kts | 276° |
| 2026-05-08 08:24 | 43.23110 | 5.97792 | 11981 ft | 242 kts | 278° |
| 2026-05-08 08:24 | 43.23337 | 5.95508 | 11986 ft | 242 kts | 278° |
| 2026-05-08 08:24 | 43.23566 | 5.93215 | 11999 ft | 242 kts | 278° |
| 2026-05-08 08:24 | 43.23790 | 5.90944 | 11997 ft | 242 kts | 278° |
| 2026-05-08 08:25 | 43.24015 | 5.88658 | 11995 ft | 243 kts | 278° |
| 2026-05-08 08:25 | 43.24240 | 5.86365 | 12001 ft | 242 kts | 278° |
| 2026-05-08 08:25 | 43.24463 | 5.84079 | 12002 ft | 242 kts | 277° |
| 2026-05-08 08:25 | 43.24683 | 5.81820 | 12000 ft | 242 kts | 277° |
| 2026-05-08 08:26 | 43.24906 | 5.79517 | 12006 ft | 241 kts | 277° |
| 2026-05-08 08:26 | 43.25119 | 5.77307 | 11986 ft | 229 kts | 277° |
| 2026-05-08 08:26 | 43.25325 | 5.75157 | 11727 ft | 225 kts | 277° |
| 2026-05-08 08:26 | 43.25529 | 5.73025 | 11242 ft | 230 kts | 277° |
| 2026-05-08 08:27 | 43.25742 | 5.70818 | 10752 ft | 234 kts | 277° |
| 2026-05-08 08:27 | 43.25954 | 5.68608 | 10271 ft | 238 kts | 277° |
| 2026-05-08 08:27 | 43.26168 | 5.66388 | 9826 ft | 235 kts | 277° |
| 2026-05-08 08:27 | 43.26379 | 5.64186 | 9401 ft | 229 kts | 277° |
| 2026-05-08 08:28 | 43.26580 | 5.62075 | 8956 ft | 223 kts | 277° |
| 2026-05-08 08:28 | 43.26660 | 5.59971 | 8526 ft | 217 kts | 267° |
| 2026-05-08 08:28 | 43.26484 | 5.57974 | 8131 ft | 210 kts | 257° |
| 2026-05-08 08:28 | 43.26128 | 5.56056 | 7727 ft | 207 kts | 253° |
| 2026-05-08 08:29 | 43.25736 | 5.54162 | 7332 ft | 206 kts | 253° |
| 2026-05-08 08:29 | 43.25346 | 5.52294 | 6944 ft | 206 kts | 253° |
| 2026-05-08 08:29 | 43.24959 | 5.50419 | 6563 ft | 205 kts | 253° |
| 2026-05-08 08:29 | 43.24572 | 5.48521 | 6163 ft | 206 kts | 254° |
| 2026-05-08 08:30 | 43.24191 | 5.46640 | 5766 ft | 208 kts | 254° |
| 2026-05-08 08:30 | 43.23807 | 5.44740 | 5377 ft | 209 kts | 254° |
| 2026-05-08 08:30 | 43.23073 | 5.40881 | 4685 ft | 207 kts | 260° |
| 2026-05-08 08:31 | 43.22948 | 5.38959 | 4424 ft | 200 kts | 269° |
| 2026-05-08 08:31 | 43.22936 | 5.37096 | 4194 ft | 191 kts | 270° |
| 2026-05-08 08:31 | 43.22994 | 5.35305 | 3973 ft | 183 kts | 283° |
| 2026-05-08 08:31 | 43.23573 | 5.33840 | 3746 ft | 172 kts | 316° |
| 2026-05-08 08:32 | 43.24560 | 5.33037 | 3534 ft | 162 kts | 346° |
| 2026-05-08 08:32 | 43.25645 | 5.32882 | 3326 ft | 152 kts | 360° |
| 2026-05-08 08:32 | 43.26664 | 5.32882 | 3126 ft | 147 kts | 1° |
| 2026-05-08 08:32 | 43.27689 | 5.32890 | 2929 ft | 146 kts | 1° |
| 2026-05-08 08:33 | 43.28708 | 5.32889 | 2749 ft | 146 kts | 0° |
| 2026-05-08 08:33 | 43.29723 | 5.32877 | 2574 ft | 145 kts | 0° |
| 2026-05-08 08:33 | 43.30724 | 5.32859 | 2474 ft | 144 kts | 0° |
| 2026-05-08 08:33 | 43.31734 | 5.32837 | 2450 ft | 144 kts | 0° |
| 2026-05-08 08:34 | 43.32730 | 5.32815 | 2428 ft | 144 kts | 0° |
| 2026-05-08 08:34 | 43.33740 | 5.32793 | 2345 ft | 144 kts | 0° |
| 2026-05-08 08:34 | 43.34749 | 5.32777 | 2219 ft | 144 kts | 1° |
| 2026-05-08 08:34 | 43.35723 | 5.32530 | 2080 ft | 144 kts | 332° |
| 2026-05-08 08:35 | 43.36510 | 5.31701 | 1988 ft | 145 kts | 317° |
| 2026-05-08 08:35 | 43.37227 | 5.30719 | 1993 ft | 146 kts | 314° |
| 2026-05-08 08:35 | 43.37927 | 5.29703 | 1951 ft | 146 kts | 314° |
| 2026-05-08 08:35 | 43.38624 | 5.28692 | 1742 ft | 145 kts | 314° |
| 2026-05-08 08:36 | 43.39323 | 5.27691 | 1481 ft | 144 kts | 314° |
| 2026-05-08 08:36 | 43.40015 | 5.26705 | 1229 ft | 143 kts | 314° |
| 2026-05-08 08:36 | 43.40703 | 5.25727 | 978 ft | 143 kts | 314° |
| 2026-05-08 08:36 | 43.41385 | 5.24756 | 731 ft | 142 kts | 314° |
| 2026-05-08 08:37 | 43.42071 | 5.23778 | 481 ft | 140 kts | 314° |